Time;durP1;ratioP1;P1;durP2;ratioP2;P2;SDS_P1;SDS_P2;PMS_P1;PMS_P2;Temp;Humidity;BMP_temperature;BMP_pressure;BME280_temperature;BME280_humidity;BME280_pressure;Samples;Min_cycle;Max_cycle;Signal;HPM_P1;HPM_P2
2023/04/07 00:01:54;;;;;;;8.52;6.22;;;7.10;99.90;;;-144.05;82.56;56872.19;5105127;28;20083;-81
2023/04/07 00:04:23;;;;;;;9.45;7.10;;;7.10;99.90;;;-144.05;82.67;56855.22;5092309;28;20039;-82
2023/04/07 00:06:49;;;;;;;12.27;7.30;;;7.20;99.90;;;-144.05;82.71;56855.22;5087963;28;20055;-81
2023/04/07 00:09:15;;;;;;;9.57;6.18;;;7.10;99.90;;;-144.05;82.72;56889.19;5088687;28;20449;-84
2023/04/07 00:11:40;;;;;;;10.48;7.47;;;7.10;99.90;;;-144.05;82.79;56859.47;5104366;28;20063;-84
2023/04/07 00:14:07;;;;;;;8.27;6.43;;;7.10;99.90;;;-144.05;83.00;56876.44;5088635;28;20458;-82
2023/04/07 00:16:32;;;;;;;9.77;6.50;;;7.20;99.90;;;-144.05;82.77;56865.81;5087149;28;20093;-81
2023/04/07 00:18:58;;;;;;;10.93;6.95;;;7.10;99.90;;;-144.05;82.54;56863.69;5102183;28;20020;-81
2023/04/07 00:21:28;;;;;;;9.60;6.75;;;7.10;99.90;;;-144.05;83.39;56844.59;5104954;28;20032;-84
2023/04/07 00:23:54;;;;;;;11.95;7.38;;;7.10;99.90;;;-144.05;83.51;56861.56;5104568;28;20049;-83
2023/04/07 00:26:20;;;;;;;12.02;7.35;;;7.10;99.90;;;-144.05;83.51;56857.34;5085435;28;20040;-84
2023/04/07 00:28:45;;;;;;;10.30;7.22;;;7.20;99.90;;;-144.05;83.00;56891.31;5103258;28;20035;-82
2023/04/07 00:31:11;;;;;;;10.98;7.68;;;7.20;99.90;;;-144.05;83.06;56857.34;5108078;28;20024;-83
2023/04/07 00:33:37;;;;;;;10.55;7.20;;;7.20;99.90;;;-144.05;82.61;56899.81;5087203;28;20474;-82
2023/04/07 00:36:04;;;;;;;11.40;7.75;;;7.10;99.90;;;-144.05;83.18;56853.09;5106084;28;20066;-84
2023/04/07 00:38:30;;;;;;;9.15;6.90;;;7.10;99.90;;;-144.05;82.97;56857.34;5108456;28;20028;-83
2023/04/07 00:41:00;;;;;;;10.70;7.63;;;7.20;99.90;;;-144.05;83.72;56865.81;5116367;28;20012;-83
2023/04/07 00:43:26;;;;;;;11.23;8.18;;;7.20;99.90;;;-144.05;83.58;56887.06;5103984;28;20083;-86
2023/04/07 00:45:53;;;;;;;10.73;8.10;;;7.20;99.90;;;-144.05;83.32;56850.97;5102233;28;20543;-84
2023/04/07 00:48:20;;;;;;;10.55;7.80;;;7.30;99.90;;;-144.05;83.13;56891.31;5100550;28;20032;-81
2023/04/07 00:50:46;;;;;;;11.30;7.13;;;7.30;99.90;;;-144.05;82.64;56846.72;5100368;28;20028;-85
2023/04/07 00:53:13;;;;;;;11.85;8.73;;;7.20;99.90;;;-144.05;83.04;56865.81;5082455;28;20050;-86
2023/04/07 00:55:39;;;;;;;10.18;7.70;;;7.20;99.90;;;-144.05;83.06;56882.81;5098825;28;20111;-84
2023/04/07 00:58:05;;;;;;;12.15;8.40;;;7.20;99.90;;;-144.05;82.86;56880.69;5101234;28;20020;-85
2023/04/07 01:00:49;;;;;;;12.02;8.65;;;7.30;99.90;;;-144.05;83.52;56861.56;5082875;28;20498;-85
2023/04/07 01:03:32;;;;;;;11.68;8.38;;;7.20;99.90;;;-144.05;84.11;56876.44;5103222;28;20295;-83
2023/04/07 01:06:06;;;;;;;12.73;8.75;;;7.20;99.90;;;-144.05;83.38;56870.06;5105163;28;20023;-84
2023/04/07 01:09:00;;;;;;;13.02;8.77;;;7.30;99.90;;;-144.05;83.22;56876.44;5092110;28;20056;-82
2023/04/07 01:11:52;;;;;;;13.40;8.63;;;7.30;99.90;;;-144.05;83.72;56855.22;5099790;28;20114;-82
2023/04/07 01:14:19;;;;;;;12.45;8.65;;;7.30;99.90;;;-144.05;83.29;56876.44;5103766;28;20031;-82
2023/04/07 01:16:50;;;;;;;13.65;9.02;;;7.30;99.90;;;-144.05;83.41;56865.81;5084504;28;20032;-85
2023/04/07 01:19:37;;;;;;;15.15;9.43;;;7.30;99.90;;;-144.05;83.48;56874.31;5087526;28;20024;-84
2023/04/07 01:22:23;;;;;;;11.07;8.32;;;7.30;99.90;;;-144.05;83.49;56870.06;5095680;28;20031;-81
2023/04/07 01:25:41;;;;;;;15.15;9.40;;;7.30;99.90;;;-144.05;84.02;56859.47;5099422;28;20509;-82
2023/04/07 01:28:43;;;;;;;11.95;9.27;;;7.30;99.90;;;-144.05;83.66;56857.34;5099485;28;20453;-83
2023/04/07 01:31:14;;;;;;;12.90;9.50;;;7.30;99.90;;;-144.05;83.76;56859.47;5099356;28;20039;-81
2023/04/07 01:33:45;;;;;;;14.15;10.10;;;7.30;99.90;;;-144.05;83.48;56865.81;5065818;28;20514;-82
2023/04/07 01:36:14;;;;;;;15.55;11.15;;;7.30;99.90;;;-144.05;83.79;56878.56;5095912;28;20024;-83
2023/04/07 01:38:42;;;;;;;15.13;10.13;;;7.30;99.90;;;-144.05;83.74;56848.84;5096757;28;20115;-82
2023/04/07 01:41:11;;;;;;;14.02;9.80;;;7.30;99.90;;;-144.05;83.37;56853.09;5095393;28;20028;-81
2023/04/07 01:43:40;;;;;;;15.68;10.65;;;7.30;99.90;;;-144.05;83.76;56853.09;5094612;28;20032;-80
2023/04/07 01:46:06;;;;;;;15.68;10.65;;;7.30;99.90;;;-144.05;84.13;56878.56;5078808;28;20514;-83
2023/04/07 01:48:35;;;;;;;16.13;10.52;;;7.30;99.90;;;-144.05;84.38;56874.31;5098628;28;20031;-83
2023/04/07 01:51:10;;;;;;;14.13;10.00;;;7.30;99.90;;;-144.05;84.04;56861.56;5100955;28;20024;-82
2023/04/07 01:53:38;;;;;;;19.83;11.45;;;7.30;99.90;;;-144.05;84.34;56863.69;5100402;28;20499;-82
2023/04/07 01:56:05;;;;;;;18.30;10.90;;;7.30;99.90;;;-144.05;84.16;56870.06;5100112;28;20092;-82
2023/04/07 01:58:31;;;;;;;16.48;11.60;;;7.30;99.90;;;-144.05;84.19;56865.81;5081195;28;20035;-83
2023/04/07 02:00:58;;;;;;;14.32;10.10;;;7.30;99.90;;;-144.05;83.81;56874.31;5101472;28;20032;-81
2023/04/07 02:03:51;;;;;;;14.27;10.15;;;7.30;99.90;;;-144.05;83.89;56872.19;5099148;28;20032;-84
2023/04/07 02:06:27;;;;;;;15.40;10.32;;;7.30;99.90;;;-144.05;83.88;56844.59;5099851;28;20028;-81
2023/04/07 02:09:05;;;;;;;15.30;10.25;;;7.40;99.90;;;-144.05;83.96;56870.06;5083443;28;20020;-81
2023/04/07 02:11:36;;;;;;;17.75;10.98;;;7.40;99.90;;;-144.05;84.47;56863.69;5100315;28;20039;-83
2023/04/07 02:14:07;;;;;;;17.08;11.43;;;7.40;99.90;;;-144.05;84.54;56878.56;5082976;28;20016;-84
2023/04/07 02:16:36;;;;;;;17.63;11.82;;;7.40;99.90;;;-144.05;85.00;56865.81;5081581;28;20063;-81
2023/04/07 02:19:04;;;;;;;16.42;10.48;;;7.40;99.90;;;-144.05;85.61;56887.06;5079290;28;20476;-83
2023/04/07 02:21:35;;;;;;;17.15;11.13;;;7.40;99.90;;;-144.05;85.77;56872.19;5100152;28;20117;-81
2023/04/07 02:24:05;;;;;;;16.25;11.43;;;7.30;99.90;;;-144.05;84.77;56870.06;5096580;28;20031;-82
2023/04/07 02:26:35;;;;;;;20.20;12.73;;;7.40;99.90;;;-144.05;84.79;56853.09;5083509;28;20028;-83
2023/04/07 02:29:05;;;;;;;16.42;12.13;;;7.40;99.90;;;-144.05;84.52;56861.56;5082824;28;20032;-82
2023/04/07 02:31:31;;;;;;;17.80;11.80;;;7.40;99.90;;;-144.05;84.34;56867.94;5082159;28;20032;-82
2023/04/07 02:33:57;;;;;;;19.75;12.82;;;7.40;99.90;;;-144.05;84.36;56870.06;5082042;28;20024;-82
2023/04/07 02:36:26;;;;;;;18.38;12.65;;;7.40;99.90;;;-144.05;84.61;56844.59;5081146;28;20502;-83
2023/04/07 02:38:53;;;;;;;17.52;11.50;;;7.40;99.90;;;-144.05;84.82;56878.56;5083779;28;20024;-84
2023/04/07 02:41:20;;;;;;;18.70;12.00;;;7.50;99.90;;;-144.05;84.59;56887.06;5097741;28;20028;-82
2023/04/07 02:43:46;;;;;;;16.65;11.23;;;7.40;99.90;;;-144.05;84.46;56889.19;5098970;28;20225;-84
2023/04/07 02:46:11;;;;;;;15.85;10.98;;;7.40;99.90;;;-144.05;84.67;56872.19;5097498;28;20468;-84
2023/04/07 02:48:37;;;;;;;18.27;12.32;;;7.50;99.90;;;-144.05;84.64;56882.81;5079975;28;20115;-84
2023/04/07 02:51:04;;;;;;;17.55;12.00;;;7.50;99.90;;;-144.05;84.42;56848.84;5097135;28;20060;-83
2023/04/07 02:53:30;;;;;;;20.02;11.93;;;7.50;99.90;;;-144.05;84.90;56880.69;5096896;28;20085;-85
2023/04/07 02:55:55;;;;;;;18.02;12.07;;;7.50;99.90;;;-144.05;84.64;56867.94;5081234;28;20024;-85
2023/04/07 02:58:21;;;;;;;18.08;12.23;;;7.50;99.90;;;-144.05;84.51;56887.06;5098352;28;20024;-86
2023/04/07 03:00:48;;;;;;;19.88;11.65;;;7.50;99.90;;;-144.05;84.44;56878.56;5098031;28;20035;-85
2023/04/07 03:03:14;;;;;;;18.73;11.88;;;7.50;99.90;;;-144.05;84.39;56874.31;5099161;28;20035;-84
2023/04/07 03:05:40;;;;;;;18.92;11.10;;;7.50;99.90;;;-144.05;84.43;56861.56;5101667;28;20028;-85
2023/04/07 03:08:06;;;;;;;21.08;12.65;;;7.50;99.90;;;-144.05;84.83;56887.06;5107784;28;20122;-84
2023/04/07 03:10:32;;;;;;;16.65;11.15;;;7.50;99.90;;;-144.05;84.64;56882.81;5078375;28;20127;-83
2023/04/07 03:12:58;;;;;;;19.60;12.35;;;7.50;99.90;;;-144.05;84.81;56870.06;5094792;28;20036;-82
2023/04/07 03:15:23;;;;;;;18.17;12.93;;;7.50;99.90;;;-144.05;84.51;56874.31;5095308;28;20329;-82
2023/04/07 03:17:49;;;;;;;18.98;12.38;;;7.50;99.90;;;-144.05;84.90;56850.97;5094123;28;20036;-83
2023/04/07 03:20:16;;;;;;;17.20;11.50;;;7.50;99.90;;;-144.05;84.46;56859.47;5095558;28;20098;-83
2023/04/07 03:22:43;;;;;;;18.35;11.80;;;7.50;99.90;;;-144.05;84.81;56884.94;5096040;28;20111;-82
2023/04/07 03:25:09;;;;;;;19.05;12.32;;;7.50;99.90;;;-144.05;85.12;56889.19;5096802;28;20100;-83
2023/04/07 03:27:35;;;;;;;21.23;12.45;;;7.50;99.90;;;-144.05;85.34;56853.09;5096342;28;20479;-82
2023/04/07 03:30:02;;;;;;;20.48;13.43;;;7.50;99.90;;;-144.05;85.86;56833.97;5097019;28;20028;-85
2023/04/07 03:32:28;;;;;;;19.92;13.35;;;7.50;99.90;;;-144.05;85.75;56878.56;5096513;28;20035;-82
2023/04/07 03:34:53;;;;;;;18.60;12.13;;;7.50;99.90;;;-144.05;85.84;56844.59;5097360;28;20032;-81
2023/04/07 03:37:19;;;;;;;19.13;12.80;;;7.50;99.90;;;-144.05;85.73;56878.56;5097920;28;20028;-84
2023/04/07 03:39:45;;;;;;;23.38;13.68;;;7.50;99.90;;;-144.05;85.79;56874.31;5097090;28;20028;-85
2023/04/07 03:42:12;;;;;;;21.90;13.90;;;7.50;99.90;;;-144.05;86.27;56855.22;5097681;28;20055;-85
2023/04/07 03:44:37;;;;;;;17.13;11.20;;;7.50;99.90;;;-144.05;85.74;56874.31;5097789;28;20024;-84
2023/04/07 03:47:03;;;;;;;20.38;12.50;;;7.50;99.90;;;-144.05;85.90;56863.69;5097477;28;20038;-84
2023/04/07 03:49:30;;;;;;;19.35;11.98;;;7.50;99.90;;;-144.05;85.97;56878.56;5097876;28;20036;-84
2023/04/07 03:51:56;;;;;;;19.75;11.65;;;7.50;99.90;;;-144.05;86.27;56887.06;5098666;28;20032;-85
2023/04/07 03:54:22;;;;;;;20.63;12.75;;;7.60;99.90;;;-144.05;86.22;56887.06;5099892;28;20046;-83
2023/04/07 03:56:48;;;;;;;19.20;12.40;;;7.50;99.90;;;-144.05;85.95;56865.81;5099449;28;20020;-82
2023/04/07 03:59:14;;;;;;;18.83;12.90;;;7.50;99.90;;;-144.05;86.11;56876.44;5115612;28;20239;-78
2023/04/07 04:01:40;;;;;;;20.58;13.30;;;7.50;99.90;;;-144.05;86.30;56857.34;5077775;28;20471;-81
2023/04/07 04:04:06;;;;;;;20.55;13.35;;;7.50;99.90;;;-144.05;86.49;56870.06;5092240;28;20090;-81
2023/04/07 04:06:32;;;;;;;22.08;14.32;;;7.60;99.90;;;-144.05;86.15;56863.69;5073997;28;20032;-82
2023/04/07 04:08:58;;;;;;;19.48;13.90;;;7.50;99.90;;;-144.05;86.54;56876.44;5092276;28;20028;-81
2023/04/07 04:11:24;;;;;;;24.00;14.20;;;7.50;99.90;;;-144.05;86.61;56884.94;5092125;28;20039;-81
2023/04/07 04:13:49;;;;;;;21.92;13.93;;;7.50;99.90;;;-144.05;86.56;56872.19;5092609;28;20035;-82
2023/04/07 04:16:15;;;;;;;18.85;12.00;;;7.60;99.90;;;-144.05;86.05;56882.81;5081646;22;20061;-77
2023/04/07 04:18:41;;;;;;;19.35;13.23;;;7.60;99.90;;;-144.05;86.43;56878.56;5050735;28;20479;-79
2023/04/07 04:21:08;;;;;;;19.77;13.13;;;7.60;99.90;;;-144.05;86.59;56874.31;5052142;28;20037;-76
2023/04/07 04:23:33;;;;;;;21.08;12.30;;;7.60;99.90;;;-144.05;86.33;56880.69;5051990;28;20051;-77
2023/04/07 04:26:02;;;;;;;20.77;12.32;;;7.60;99.90;;;-144.05;85.97;56884.94;5051613;28;20025;-74
2023/04/07 04:28:29;;;;;;;20.67;12.18;;;7.60;99.90;;;-144.05;85.93;56861.56;5051568;28;20032;-75
2023/04/07 04:30:54;;;;;;;18.45;12.20;;;7.60;99.90;;;-144.05;85.98;56870.06;5052489;28;20038;-76
2023/04/07 04:33:20;;;;;;;19.88;12.18;;;7.60;99.90;;;-144.05;85.96;56855.22;5055249;28;20392;-77
2023/04/07 04:35:46;;;;;;;19.27;12.48;;;7.60;99.90;;;-144.05;85.74;56887.06;5054196;28;20083;-77
2023/04/07 04:38:12;;;;;;;18.92;13.13;;;7.60;99.90;;;-144.05;86.24;56857.34;5054127;28;20159;-76
2023/04/07 04:40:38;;;;;;;21.10;13.75;;;7.60;99.90;;;-144.05;86.47;56867.94;5054472;28;20049;-77
2023/04/07 04:43:08;;;;;;;21.08;13.25;;;7.60;99.90;;;-144.05;86.66;56884.94;5055353;28;20025;-77
2023/04/07 04:45:34;;;;;;;22.00;13.73;;;7.60;99.90;;;-144.05;86.24;56872.19;5037588;28;20025;-76
2023/04/07 04:48:00;;;;;;;22.42;12.95;;;7.70;99.90;;;-144.05;86.16;56861.56;5053827;28;20886;-77
2023/04/07 04:50:26;;;;;;;22.13;13.20;;;7.70;99.90;;;-144.05;86.23;56863.69;5055333;28;20044;-77
2023/04/07 04:52:52;;;;;;;21.95;13.18;;;7.70;99.90;;;-144.05;86.10;56850.97;5055318;28;20033;-76
2023/04/07 04:55:18;;;;;;;21.23;13.63;;;7.70;99.90;;;-144.05;86.00;56891.31;5055390;28;20132;-77
2023/04/07 04:57:44;;;;;;;23.30;14.73;;;7.70;99.90;;;-144.05;85.76;56865.81;5055023;28;20112;-77
2023/04/07 05:00:10;;;;;;;27.27;16.48;;;7.70;99.90;;;-144.05;85.85;56876.44;5055406;28;20036;-77
2023/04/07 05:02:36;;;;;;;24.02;15.38;;;7.80;99.90;;;-144.05;85.87;56887.06;5054939;28;20040;-77
2023/04/07 05:05:02;;;;;;;26.35;16.13;;;7.70;99.90;;;-144.05;85.70;56872.19;5054045;28;20029;-76
2023/04/07 05:07:28;;;;;;;32.25;17.83;;;7.80;99.90;;;-144.05;85.97;56882.81;5055427;28;20059;-76
2023/04/07 05:09:54;;;;;;;29.17;17.63;;;7.80;99.90;;;-144.05;85.66;56870.06;5053857;28;20413;-76
2023/04/07 05:12:21;;;;;;;27.45;16.65;;;7.80;99.90;;;-144.05;85.54;56874.31;5053585;28;20184;-76
2023/04/07 05:14:47;;;;;;;32.15;17.55;;;7.80;99.90;;;-144.05;85.66;56861.56;5053713;28;20075;-76
2023/04/07 05:17:12;;;;;;;32.67;18.00;;;7.80;99.90;;;-144.05;85.48;56884.94;5054910;28;20040;-76
2023/04/07 05:19:38;;;;;;;31.92;17.67;;;7.80;99.90;;;-144.05;85.70;56870.06;5036994;28;20174;-77
2023/04/07 05:22:04;;;;;;;32.55;18.05;;;7.80;99.90;;;-144.05;86.04;56878.56;5054802;28;20517;-75
2023/04/07 05:24:30;;;;;;;33.10;18.92;;;7.80;99.90;;;-144.05;85.67;56893.44;5053203;28;20063;-77
2023/04/07 05:26:56;;;;;;;35.30;19.27;;;7.80;99.90;;;-144.05;85.49;56857.34;5053122;28;20032;-76
2023/04/07 05:29:22;;;;;;;38.08;18.70;;;7.80;99.90;;;-144.05;85.77;56874.31;5055071;28;20025;-76
2023/04/07 05:31:48;;;;;;;33.90;17.85;;;7.80;99.90;;;-144.05;85.66;56895.56;5055065;28;20103;-76
2023/04/07 05:34:14;;;;;;;31.73;16.23;;;7.80;99.90;;;-144.05;85.73;56876.44;5055822;28;20104;-77
2023/04/07 05:36:40;;;;;;;33.40;18.15;;;7.80;99.90;;;-144.05;85.70;56876.44;5055302;28;20021;-76
2023/04/07 05:39:06;;;;;;;35.70;17.95;;;7.70;99.90;;;-144.05;85.62;56884.94;5037360;28;20029;-76
2023/04/07 05:41:32;;;;;;;39.42;18.45;;;7.80;99.90;;;-144.05;85.67;56870.06;5055921;28;20059;-77
2023/04/07 05:43:57;;;;;;;42.03;18.20;;;7.70;99.90;;;-144.05;86.20;56887.06;5056104;28;20033;-76
2023/04/07 05:46:23;;;;;;;40.83;19.20;;;7.70;99.90;;;-144.05;86.02;56889.19;5056020;28;20029;-76
2023/04/07 05:48:49;;;;;;;40.95;19.48;;;7.70;99.90;;;-144.05;86.08;56880.69;5055152;28;20554;-76
2023/04/07 05:51:15;;;;;;;41.53;20.13;;;7.70;99.90;;;-144.05;85.80;56863.69;5055730;28;20524;-75
2023/04/07 05:53:41;;;;;;;37.95;18.13;;;7.70;99.90;;;-144.05;85.72;56897.69;5054347;28;20025;-76
2023/04/07 05:56:06;;;;;;;35.33;16.98;;;7.80;99.90;;;-144.05;85.59;56891.31;5060957;28;20037;-77
2023/04/07 05:58:32;;;;;;;41.65;19.15;;;7.70;99.90;;;-144.05;85.52;56912.56;5075452;28;20025;-75
2023/04/07 06:00:58;;;;;;;36.65;17.70;;;7.80;99.90;;;-144.05;85.86;56899.81;5055982;28;20484;-77
2023/04/07 06:03:24;;;;;;;38.35;18.42;;;7.80;99.90;;;-144.05;85.99;56884.94;5054888;28;20032;-76
2023/04/07 06:05:51;;;;;;;36.80;18.05;;;7.80;99.90;;;-144.05;85.62;56876.44;5055354;28;20060;-77
2023/04/07 06:08:17;;;;;;;36.20;17.83;;;7.80;99.90;;;-144.05;85.66;56889.19;5054680;28;20063;-76
2023/04/07 06:10:43;;;;;;;35.97;16.85;;;7.80;99.90;;;-144.05;85.71;56855.22;5055457;28;20040;-76
2023/04/07 06:13:09;;;;;;;32.72;16.65;;;7.80;99.90;;;-144.05;85.83;56842.47;5053578;28;20025;-76
2023/04/07 06:15:34;;;;;;;33.60;16.73;;;7.80;99.90;;;-144.05;85.66;56855.22;5054866;28;20021;-76
2023/04/07 06:18:00;;;;;;;30.05;15.50;;;7.80;99.90;;;-144.05;85.70;56855.22;5054563;28;20064;-77
2023/04/07 06:20:26;;;;;;;26.23;15.30;;;7.80;99.90;;;-144.05;85.60;56870.06;5054535;28;20115;-77
2023/04/07 06:22:54;;;;;;;36.58;16.25;;;7.80;99.90;;;-144.05;85.63;56867.94;5037438;28;20111;-76
2023/04/07 06:25:20;;;;;;;29.10;16.08;;;7.80;99.90;;;-144.05;85.37;56861.56;5054932;28;20434;-76
2023/04/07 06:27:46;;;;;;;30.75;14.98;;;7.80;99.90;;;-144.05;85.22;56872.19;5052747;28;20032;-76
2023/04/07 06:30:13;;;;;;;26.42;14.55;;;7.80;99.90;;;-144.05;85.22;56878.56;5060697;28;20028;-76
2023/04/07 06:32:39;;;;;;;26.70;15.32;;;7.80;99.90;;;-144.05;85.26;56891.31;5057320;28;20095;-76
2023/04/07 06:35:05;;;;;;;25.63;14.35;;;7.80;99.90;;;-144.05;85.37;56893.44;5054244;28;20404;-77
2023/04/07 06:37:31;;;;;;;26.70;13.27;;;7.80;99.90;;;-144.05;85.44;56870.06;5053613;28;20096;-75
2023/04/07 06:39:57;;;;;;;23.95;13.57;;;7.80;99.90;;;-144.05;85.47;56891.31;5054737;28;20025;-75
2023/04/07 06:42:23;;;;;;;23.13;13.30;;;7.80;99.90;;;-144.05;85.52;56878.56;5055230;28;20047;-77
2023/04/07 06:44:49;;;;;;;21.35;12.18;;;7.80;99.90;;;-144.05;85.08;56865.81;5053381;28;20067;-78
2023/04/07 06:47:15;;;;;;;23.70;12.57;;;7.80;99.90;;;-144.05;84.84;56874.31;5051938;28;20028;-77
2023/04/07 06:49:40;;;;;;;22.80;11.45;;;7.80;99.90;;;-144.05;85.00;56872.19;5053509;28;20101;-77
2023/04/07 06:52:06;;;;;;;19.55;11.18;;;7.90;99.90;;;-144.05;84.85;56880.69;5051551;28;20108;-77
2023/04/07 06:54:32;;;;;;;19.45;10.05;;;7.90;99.90;;;-144.05;85.09;56897.69;5052449;28;20087;-76
2023/04/07 06:56:58;;;;;;;17.63;10.82;;;7.80;99.90;;;-144.05;84.93;56853.09;5052715;28;20028;-77
2023/04/07 06:59:24;;;;;;;18.13;10.95;;;7.80;99.90;;;-144.05;84.75;56870.06;5051366;28;20055;-76
2023/04/07 07:01:50;;;;;;;17.05;10.90;;;7.80;99.90;;;-144.05;84.44;56897.69;5052703;28;20025;-77
2023/04/07 07:04:16;;;;;;;18.17;11.07;;;7.90;99.90;;;-144.05;84.69;56870.06;5052574;28;20037;-76
2023/04/07 07:06:41;;;;;;;16.60;9.93;;;7.90;99.90;;;-144.05;84.52;56870.06;5052723;28;20080;-77
2023/04/07 07:09:07;;;;;;;17.67;10.32;;;7.90;99.90;;;-144.05;84.47;56831.84;5052567;28;20108;-76
2023/04/07 07:11:33;;;;;;;18.02;10.77;;;7.90;99.90;;;-144.05;84.34;56891.31;5051284;28;20029;-76
2023/04/07 07:14:01;;;;;;;15.18;9.40;;;7.90;99.90;;;-144.05;84.42;56884.94;5051627;28;20064;-77
2023/04/07 07:16:27;;;;;;;17.20;10.10;;;8.00;99.90;;;-144.05;84.26;56872.19;5052242;28;20429;-77
2023/04/07 07:18:53;;;;;;;16.65;9.82;;;8.00;99.90;;;-144.05;84.13;56895.56;5052712;28;20028;-78
2023/04/07 07:21:20;;;;;;;18.70;10.43;;;8.10;99.90;;;-144.05;84.18;56895.56;5052724;28;20400;-75
2023/04/07 07:23:45;;;;;;;17.35;9.40;;;8.10;99.90;;;-144.05;84.31;56882.81;5051445;28;20090;-77
2023/04/07 07:26:11;;;;;;;17.10;10.25;;;8.10;99.90;;;-144.05;83.83;56893.44;5051477;28;20041;-78
2023/04/07 07:28:37;;;;;;;17.63;10.88;;;8.20;99.90;;;-144.05;84.11;56887.06;5052621;28;20500;-76
2023/04/07 07:31:14;;;;;;;15.30;9.80;;;8.30;99.90;;;-144.05;83.78;56857.34;5052705;28;20033;-77
2023/04/07 07:33:42;;;;;;;15.85;9.32;;;8.30;99.90;;;-144.05;83.34;56895.56;5052301;28;20570;-76
2023/04/07 07:36:09;;;;;;;17.13;10.05;;;8.30;99.90;;;-144.05;83.53;56867.94;5051880;28;20094;-76
2023/04/07 07:38:35;;;;;;;16.35;9.98;;;8.30;99.90;;;-144.05;83.12;56882.81;5052458;28;20366;-76
2023/04/07 07:41:01;;;;;;;14.48;10.32;;;8.30;99.90;;;-144.05;82.97;56895.56;5052827;28;20028;-76
2023/04/07 07:43:28;;;;;;;16.58;10.35;;;8.40;99.90;;;-144.05;82.96;56882.81;5052535;28;20391;-76
2023/04/07 07:45:54;;;;;;;16.95;9.75;;;8.40;99.90;;;-144.05;82.78;56874.31;5052164;28;20542;-76
2023/04/07 07:48:20;;;;;;;16.50;10.05;;;8.40;99.90;;;-144.05;82.97;56876.44;5052003;28;20044;-76
2023/04/07 07:50:47;;;;;;;15.15;9.63;;;8.50;99.90;;;-144.05;82.93;56876.44;5052960;28;20304;-77
2023/04/07 07:53:14;;;;;;;15.52;8.70;;;8.50;99.90;;;-144.05;82.68;56861.56;5053683;28;20057;-79
2023/04/07 07:55:40;;;;;;;12.73;8.15;;;8.50;99.90;;;-144.05;82.41;56865.81;5053501;28;20021;-77
2023/04/07 07:58:06;;;;;;;12.95;8.90;;;8.50;99.90;;;-144.05;82.31;56870.06;5052605;28;20040;-77
2023/04/07 08:00:32;;;;;;;12.80;8.57;;;8.50;99.90;;;-144.05;82.06;56865.81;5053325;28;20021;-77
2023/04/07 08:02:58;;;;;;;12.02;7.53;;;8.50;99.90;;;-144.05;81.64;56895.56;5035114;28;20040;-76
2023/04/07 08:05:25;;;;;;;12.18;7.22;;;8.60;99.90;;;-144.05;81.27;56870.06;5056071;28;20107;-76
2023/04/07 08:07:54;;;;;;;11.05;6.90;;;8.50;99.90;;;-144.05;81.05;56893.44;5057803;28;20667;-76
2023/04/07 08:10:20;;;;;;;14.90;8.18;;;8.60;99.90;;;-144.05;81.15;56882.81;5056836;28;20124;-76
2023/04/07 08:12:46;;;;;;;11.57;6.55;;;8.60;99.90;;;-144.05;80.87;56855.22;5056226;28;20056;-77
2023/04/07 08:15:12;;;;;;;9.23;6.55;;;8.60;99.90;;;-144.05;80.79;56889.19;5057904;28;20033;-77
2023/04/07 08:17:38;;;;;;;10.02;7.00;;;8.60;99.90;;;-144.05;80.69;56872.19;5039098;28;20040;-76
2023/04/07 08:20:06;;;;;;;12.57;8.70;;;8.60;99.90;;;-144.05;80.80;56912.56;5061782;28;20029;-78
2023/04/07 08:22:32;;;;;;;13.25;8.35;;;8.70;99.90;;;-144.05;80.93;56863.69;5075770;28;20063;-78
2023/04/07 08:24:57;;;;;;;9.85;6.68;;;8.80;99.90;;;-144.05;80.62;56872.19;5057056;28;20106;-78
2023/04/07 08:27:24;;;;;;;10.75;7.13;;;8.80;99.90;;;-144.05;80.47;56865.81;5037768;28;20037;-78
2023/04/07 08:30:03;;;;;;;10.60;7.20;;;8.70;99.90;;;-144.05;80.32;56882.81;5054933;28;20033;-77
2023/04/07 08:32:40;;;;;;;10.68;6.43;;;8.70;99.90;;;-144.05;80.19;56872.19;5055794;28;20025;-77
2023/04/07 08:35:07;;;;;;;10.27;6.75;;;8.70;99.90;;;-144.05;80.54;56867.94;5055695;28;20366;-76
2023/04/07 08:37:34;;;;;;;10.48;6.90;;;8.80;99.90;;;-144.05;80.82;56876.44;5037524;28;20480;-76
2023/04/07 08:40:03;;;;;;;9.32;6.82;;;8.80;99.90;;;-144.05;80.90;56878.56;5055977;28;20028;-76
2023/04/07 08:42:33;;;;;;;10.70;6.68;;;8.80;99.90;;;-144.05;80.56;56853.09;5055557;28;20033;-77
2023/04/07 08:45:06;;;;;;;14.05;8.85;;;8.80;99.90;;;-144.05;80.61;56867.94;5055560;28;20037;-76
2023/04/07 08:47:35;;;;;;;9.07;6.50;;;8.80;99.90;;;-144.05;80.32;56876.44;5054003;28;20032;-76
2023/04/07 08:50:09;;;;;;;10.35;6.50;;;8.80;99.90;;;-144.05;80.27;56880.69;5055310;28;20029;-77
2023/04/07 08:52:59;;;;;;;9.52;6.22;;;8.80;99.90;;;-144.05;80.49;56863.69;5037322;28;20036;-77
2023/04/07 08:55:25;;;;;;;9.65;5.65;;;8.90;99.90;;;-144.05;80.15;56901.94;5055486;28;20107;-77
2023/04/07 08:57:53;;;;;;;9.52;6.18;;;8.90;99.90;;;-144.05;80.05;56865.81;5062185;28;20206;-77
2023/04/07 09:00:20;;;;;;;7.40;5.65;;;9.00;99.90;;;-144.05;79.94;56861.56;5045260;28;20025;-75
2023/04/07 09:02:48;;;;;;;8.70;6.18;;;8.90;99.90;;;-144.05;79.75;56870.06;5056644;28;20037;-77
2023/04/07 09:05:14;;;;;;;8.25;5.82;;;9.00;99.90;;;-144.05;79.47;56859.47;5056011;28;20028;-76
2023/04/07 09:07:42;;;;;;;9.15;6.35;;;9.00;99.90;;;-144.05;79.82;56882.81;5053889;28;20033;-77
2023/04/07 09:10:08;;;;;;;8.95;6.32;;;9.00;99.90;;;-144.05;79.61;56861.56;5037545;28;20059;-76
2023/04/07 09:12:35;;;;;;;6.88;5.28;;;9.10;99.90;;;-144.05;79.12;56882.81;5054990;28;20155;-76
2023/04/07 09:15:01;;;;;;;7.60;4.93;;;9.10;99.90;;;-144.05;79.26;56867.94;5054651;28;20024;-75
2023/04/07 09:17:28;;;;;;;7.53;5.40;;;9.00;99.90;;;-144.05;79.00;56887.06;5036482;28;20507;-77
2023/04/07 09:20:02;;;;;;;6.80;4.80;;;9.00;99.90;;;-144.05;78.86;56889.19;5055014;28;20384;-77
2023/04/07 09:22:35;;;;;;;7.85;5.18;;;9.00;99.90;;;-144.05;79.01;56870.06;5055291;28;20025;-76
2023/04/07 09:25:26;;;;;;;5.57;4.22;;;9.10;99.90;;;-144.05;78.97;56897.69;5055453;28;20053;-77
2023/04/07 09:28:03;;;;;;;6.97;5.07;;;9.10;99.90;;;-144.05;79.13;56870.06;5055408;28;20093;-77
2023/04/07 09:30:33;;;;;;;7.38;4.88;;;9.30;99.90;;;-144.05;78.25;56853.09;5055183;28;20103;-77
2023/04/07 09:33:01;;;;;;;4.40;3.95;;;9.30;99.90;;;-144.05;78.15;56889.19;5037655;28;20063;-77
2023/04/07 09:35:28;;;;;;;5.38;4.00;;;9.30;99.90;;;-144.05;77.85;56880.69;5053945;28;20025;-77
2023/04/07 09:38:08;;;;;;;6.65;4.65;;;9.20;99.90;;;-144.05;77.83;56893.44;5037020;28;20029;-76
2023/04/07 09:40:36;;;;;;;5.20;4.40;;;9.30;99.90;;;-144.05;77.77;56887.06;5054411;28;20033;-75
2023/04/07 09:43:05;;;;;;;6.18;4.25;;;9.20;99.90;;;-144.05;77.19;56887.06;5037757;28;20373;-79
2023/04/07 09:45:33;;;;;;;5.95;4.35;;;9.10;99.90;;;-144.05;77.44;56872.19;5055737;28;20396;-77
2023/04/07 09:48:05;;;;;;;5.85;4.38;;;9.10;99.90;;;-144.05;77.71;56874.31;5055608;28;20020;-78
2023/04/07 09:50:50;;;;;;;6.60;4.45;;;9.10;99.90;;;-144.05;78.24;56884.94;5054544;28;20083;-76
2023/04/07 09:53:18;;;;;;;8.23;4.90;;;9.10;99.90;;;-144.05;78.14;56870.06;5053208;28;20040;-77
2023/04/07 09:55:45;;;;;;;7.20;5.03;;;9.10;99.90;;;-144.05;78.25;56870.06;5055044;28;20059;-77
2023/04/07 09:58:15;;;;;;;5.53;4.63;;;9.10;99.90;;;-144.05;78.18;56857.34;5036492;28;20021;-77
2023/04/07 10:00:43;;;;;;;6.18;4.70;;;9.10;99.90;;;-144.05;78.19;56887.06;5035663;28;20036;-77
2023/04/07 10:03:09;;;;;;;8.07;6.03;;;9.00;99.90;;;-144.05;78.34;56893.44;5053542;28;20029;-78
2023/04/07 10:05:37;;;;;;;8.60;6.47;;;8.90;99.90;;;-144.05;78.55;56889.19;5053786;28;20079;-77
2023/04/07 10:08:05;;;;;;;8.80;6.93;;;8.80;99.90;;;-144.05;78.33;56901.94;5052450;28;20120;-77